createdAt,value
2023-10-10T00:00:00.593Z,987.9
2023-10-10T00:05:00.721Z,987.8
2023-10-10T00:15:00.716Z,987.8
2023-10-10T00:20:01.486Z,987.9
2023-10-10T00:30:00.716Z,987.9
2023-10-10T00:35:00.651Z,987.9
2023-10-10T00:45:00.731Z,988.0
2023-10-10T00:50:00.751Z,988.0
2023-10-10T00:55:00.774Z,988.1
2023-10-10T01:00:00.927Z,988.1
2023-10-10T01:05:02.179Z,988.1
2023-10-10T01:10:00.625Z,988.1
2023-10-10T01:15:02.833Z,988.1
2023-10-10T01:20:01.198Z,988.1
2023-10-10T01:25:00.709Z,988.1
2023-10-10T01:30:00.617Z,988.1
2023-10-10T01:35:00.711Z,988.2
2023-10-10T01:40:02.146Z,988.2
2023-10-10T01:45:03.598Z,988.2
2023-10-10T01:55:00.701Z,988.3
2023-10-10T02:00:00.784Z,988.3
2023-10-10T02:05:01.321Z,988.4
2023-10-10T02:10:01.089Z,988.3
2023-10-10T02:15:00.682Z,988.3
2023-10-10T02:25:00.813Z,988.5
2023-10-10T02:35:00.756Z,988.4
2023-10-10T02:40:00.605Z,988.5
2023-10-10T02:45:00.751Z,988.5
2023-10-10T02:50:00.684Z,988.5
2023-10-10T02:55:00.704Z,988.5
2023-10-10T03:00:02.452Z,988.6
2023-10-10T03:05:00.910Z,988.6
2023-10-10T03:10:02.113Z,988.7
2023-10-10T03:15:00.672Z,988.7
2023-10-10T03:25:00.677Z,988.8
2023-10-10T03:30:00.561Z,988.8
2023-10-10T03:40:00.638Z,989.0
2023-10-10T03:45:00.758Z,989.0
2023-10-10T03:50:01.175Z,989.1
2023-10-10T04:00:00.957Z,989.2
2023-10-10T04:05:12.156Z,989.3
2023-10-10T04:10:00.791Z,989.3
2023-10-10T04:15:00.653Z,989.3
2023-10-10T04:20:00.720Z,989.4
2023-10-10T04:25:02.598Z,989.5
2023-10-10T04:30:00.681Z,989.4
2023-10-10T04:35:00.672Z,989.5
2023-10-10T04:40:00.735Z,989.5
2023-10-10T04:45:00.577Z,989.7
2023-10-10T04:50:00.699Z,989.7
2023-10-10T04:55:00.609Z,989.8
2023-10-10T05:00:00.919Z,989.9
2023-10-10T05:05:00.575Z,989.9
2023-10-10T05:10:00.697Z,989.9
2023-10-10T05:15:00.787Z,990.1
2023-10-10T05:20:00.945Z,990.1
2023-10-10T05:40:00.996Z,990.2
2023-10-10T05:45:00.625Z,990.3
2023-10-10T05:50:00.728Z,990.3
2023-10-10T05:55:00.647Z,990.4
2023-10-10T06:00:00.718Z,990.4
2023-10-10T06:05:00.593Z,990.5
2023-10-10T06:10:00.915Z,990.6
2023-10-10T06:15:00.591Z,990.6
2023-10-10T06:20:00.783Z,990.7
2023-10-10T06:30:00.735Z,990.7
2023-10-10T06:35:00.566Z,990.7
2023-10-10T06:40:00.977Z,990.8
2023-10-10T06:45:00.666Z,990.8
2023-10-10T06:55:00.686Z,991.0
2023-10-10T07:00:00.771Z,991.0
2023-10-10T07:10:00.711Z,991.1
2023-10-10T07:20:00.741Z,991.1
2023-10-10T07:25:00.638Z,991.1
2023-10-10T07:30:00.670Z,991.2
2023-10-10T07:35:00.945Z,991.3
2023-10-10T07:40:02.214Z,991.3
2023-10-10T07:45:01.200Z,991.4
2023-10-10T07:55:00.706Z,991.5
2023-10-10T08:00:00.614Z,991.5
2023-10-10T08:10:01.619Z,991.5
2023-10-10T08:20:00.677Z,991.7
2023-10-10T08:25:00.590Z,991.7
2023-10-10T08:30:00.886Z,991.7
2023-10-10T08:45:02.577Z,991.9
2023-10-10T08:55:01.907Z,992.0
2023-10-10T09:00:00.795Z,992.1
2023-10-10T09:05:00.711Z,992.1
2023-10-10T09:10:01.077Z,992.1
2023-10-10T09:15:11.278Z,992.2
2023-10-10T09:20:01.535Z,992.2
2023-10-10T09:25:00.778Z,992.3
2023-10-10T09:30:00.658Z,992.2
2023-10-10T09:35:00.681Z,992.2
2023-10-10T09:40:02.584Z,992.3
2023-10-10T09:45:02.361Z,992.4
2023-10-10T09:50:01.407Z,992.3
2023-10-10T10:05:01.625Z,992.4
2023-10-10T10:15:14.759Z,992.5
2023-10-10T10:20:01.979Z,992.6
2023-10-10T10:30:01.982Z,992.5
2023-10-10T10:35:00.693Z,992.6
2023-10-10T10:50:01.122Z,992.7
2023-10-10T11:00:00.798Z,992.8
2023-10-10T11:05:00.624Z,992.8
2023-10-10T11:10:00.943Z,992.8
2023-10-10T11:15:00.791Z,992.9
2023-10-10T11:20:00.948Z,992.9
2023-10-10T11:25:00.942Z,992.9
2023-10-10T11:40:11.213Z,993.1
2023-10-10T11:50:02.966Z,993.3
2023-10-10T11:55:01.265Z,993.3
2023-10-10T12:00:12.688Z,993.4
2023-10-10T12:05:00.609Z,993.5
2023-10-10T12:10:00.690Z,993.6
2023-10-10T12:15:00.630Z,993.6
2023-10-10T12:20:00.671Z,993.8
2023-10-10T12:25:00.587Z,993.9
2023-10-10T12:30:00.784Z,994.0
2023-10-10T12:40:00.967Z,994.1
2023-10-10T12:45:00.628Z,994.0
2023-10-10T12:50:00.820Z,994.1
2023-10-10T13:00:00.771Z,994.2
2023-10-10T13:05:00.609Z,994.2
2023-10-10T13:10:00.999Z,994.2
2023-10-10T13:25:00.705Z,994.5
2023-10-10T13:35:00.664Z,994.6
2023-10-10T13:40:00.671Z,994.6
2023-10-10T13:45:00.782Z,994.6
2023-10-10T13:55:00.837Z,994.8
2023-10-10T14:10:03.472Z,994.9
2023-10-10T14:45:00.767Z,995.6
2023-10-10T14:55:00.734Z,995.8
2023-10-10T15:00:00.665Z,995.8
2023-10-10T15:05:00.730Z,995.9
2023-10-10T15:15:00.970Z,996.0
2023-10-10T15:20:00.604Z,996.1
2023-10-10T15:25:00.724Z,996.2
2023-10-10T15:35:00.682Z,996.3
2023-10-10T15:40:00.635Z,996.4
2023-10-10T15:45:01.010Z,996.5
2023-10-10T15:55:00.940Z,996.6
2023-10-10T16:05:00.756Z,996.7
2023-10-10T16:20:00.719Z,996.8
2023-10-10T16:25:00.610Z,996.9
2023-10-10T16:30:00.753Z,997.0
2023-10-10T16:40:00.739Z,997.1
2023-10-10T16:50:00.737Z,997.2
2023-10-10T16:55:00.656Z,997.2
2023-10-10T17:00:00.817Z,997.3
2023-10-10T17:10:00.707Z,997.4
2023-10-10T17:15:00.687Z,997.4
2023-10-10T17:30:00.827Z,997.7
2023-10-10T17:45:01.119Z,997.9
2023-10-10T17:50:00.740Z,997.9
2023-10-10T17:55:00.681Z,998.1
2023-10-10T18:00:00.653Z,998.0
2023-10-10T18:05:00.758Z,998.1
2023-10-10T18:10:00.861Z,998.1
2023-10-10T18:15:00.702Z,998.2
2023-10-10T18:20:00.684Z,998.3
2023-10-10T18:25:00.817Z,998.3
2023-10-10T18:30:00.658Z,998.5
2023-10-10T18:35:00.917Z,998.5
2023-10-10T18:40:02.568Z,998.6
2023-10-10T18:45:00.802Z,998.5
2023-10-10T18:50:00.827Z,998.6
2023-10-10T18:55:01.569Z,998.6
2023-10-10T19:00:00.726Z,998.7
2023-10-10T19:05:00.848Z,998.7
2023-10-10T19:10:00.857Z,998.7
2023-10-10T19:30:00.784Z,998.8
2023-10-10T19:55:12.779Z,999.1
2023-10-10T20:10:00.838Z,999.2
2023-10-10T20:15:00.621Z,999.2
2023-10-10T20:20:00.789Z,999.3
2023-10-10T20:25:00.596Z,999.3
2023-10-10T20:30:01.077Z,999.4
2023-10-10T20:50:00.697Z,999.4
2023-10-10T20:55:00.585Z,999.5
2023-10-10T21:00:01.008Z,999.4
2023-10-10T21:05:00.607Z,999.5
2023-10-10T21:20:02.379Z,999.6
2023-10-10T21:30:01.566Z,999.7
2023-10-10T21:35:01.014Z,999.8
2023-10-10T21:40:00.691Z,999.9
2023-10-10T21:50:03.007Z,999.9
2023-10-10T21:55:00.591Z,1000.0
2023-10-10T22:00:00.755Z,1000.0
2023-10-10T22:05:00.548Z,1000.1
2023-10-10T22:15:00.704Z,1000.2
2023-10-10T22:20:00.689Z,1000.2
2023-10-10T22:25:01.158Z,1000.3
2023-10-10T22:30:00.797Z,1000.4
2023-10-10T22:35:00.963Z,1000.5
2023-10-10T22:40:00.587Z,1000.5
2023-10-10T22:45:00.941Z,1000.6
2023-10-10T22:50:00.591Z,1000.6
2023-10-10T22:55:00.666Z,1000.6
2023-10-10T23:00:00.612Z,1000.5
2023-10-10T23:05:00.690Z,1000.5
2023-10-10T23:10:01.366Z,1000.5
2023-10-10T23:15:00.936Z,1000.5
2023-10-10T23:20:00.869Z,1000.4
2023-10-10T23:40:02.148Z,1000.5
2023-10-10T23:45:00.715Z,1000.6
2023-10-10T23:50:00.682Z,1000.6
2023-10-10T23:55:00.612Z,1000.7
